Time;durP1;ratioP1;P1;durP2;ratioP2;P2;SDS_P1;SDS_P2;PMS_P1;PMS_P2;Temp;Humidity;BMP_temperature;BMP_pressure;BME280_temperature;BME280_humidity;BME280_pressure;Samples;Min_cycle;Max_cycle;Signal;HPM_P1;HPM_P2
2022/10/09 00:00:34;;;;;;;9.68;2.03;;;11.60;98.80;;;;;;5070729;28;20025;-72
2022/10/09 00:03:00;;;;;;;7.07;1.83;;;11.50;98.90;;;;;;5070659;28;20396;-72
2022/10/09 00:05:26;;;;;;;9.13;1.60;;;11.50;98.90;;;;;;5070770;28;20086;-73
2022/10/09 00:07:52;;;;;;;6.85;1.85;;;11.50;98.90;;;;;;5069976;28;20128;-72
2022/10/09 00:10:18;;;;;;;6.97;2.13;;;11.50;99.00;;;;;;5070429;28;20343;-73
2022/10/09 00:12:44;;;;;;;6.15;1.73;;;11.40;99.40;;;;;;5070564;28;20040;-72
2022/10/09 00:15:10;;;;;;;5.43;1.90;;;11.40;99.20;;;;;;5070886;28;20107;-74
2022/10/09 00:17:35;;;;;;;7.10;2.05;;;11.40;99.10;;;;;;5069360;28;20513;-73
2022/10/09 00:20:02;;;;;;;8.23;1.92;;;11.40;99.10;;;;;;5070964;28;20107;-72
2022/10/09 00:22:28;;;;;;;9.02;2.15;;;11.30;99.00;;;;;;5070544;28;20024;-71
2022/10/09 00:24:54;;;;;;;15.48;2.30;;;11.40;99.10;;;;;;5070738;28;20559;-72
2022/10/09 00:27:21;;;;;;;9.93;2.00;;;11.30;99.00;;;;;;5070447;28;20032;-71
2022/10/09 00:29:47;;;;;;;8.10;2.20;;;11.30;99.10;;;;;;5070561;28;20351;-72
2022/10/09 00:32:13;;;;;;;10.32;2.58;;;11.20;99.20;;;;;;5070762;28;20038;-72
2022/10/09 00:34:39;;;;;;;5.95;2.13;;;11.10;99.30;;;;;;5070433;28;20021;-72
2022/10/09 00:37:04;;;;;;;8.25;1.50;;;11.10;99.30;;;;;;5070211;28;20020;-71
2022/10/09 00:39:30;;;;;;;9.10;2.17;;;11.10;99.30;;;;;;5070285;28;20060;-72
2022/10/09 00:41:56;;;;;;;13.98;2.13;;;11.10;99.40;;;;;;5070263;28;20094;-72
2022/10/09 00:44:48;;;;;;;7.75;1.98;;;11.10;99.30;;;;;;5070409;28;20039;-71
2022/10/09 00:47:26;;;;;;;6.22;1.88;;;11.10;99.40;;;;;;5070672;28;20324;-72
2022/10/09 00:49:56;;;;;;;7.03;1.85;;;11.10;99.50;;;;;;5070649;28;20033;-71
2022/10/09 00:52:24;;;;;;;10.27;2.40;;;11.00;99.50;;;;;;5070128;28;20040;-71
2022/10/09 00:54:51;;;;;;;13.02;2.10;;;11.00;99.50;;;;;;5073470;28;20107;-71
2022/10/09 00:57:17;;;;;;;8.23;2.28;;;10.90;99.40;;;;;;5074078;28;20033;-71
2022/10/09 00:59:43;;;;;;;4.13;1.92;;;10.90;99.40;;;;;;5073788;28;20040;-72
2022/10/09 01:02:08;;;;;;;8.52;2.15;;;11.00;99.40;;;;;;5073307;28;20024;-71
2022/10/09 01:04:34;;;;;;;11.15;3.75;;;10.80;99.50;;;;;;5073824;28;20091;-72
2022/10/09 01:07:21;;;;;;;5.78;1.95;;;10.80;99.60;;;;;;5073718;28;20053;-72
2022/10/09 01:10:00;;;;;;;9.10;1.90;;;10.80;99.60;;;;;;5073833;28;20540;-71
2022/10/09 01:12:42;;;;;;;6.38;1.77;;;10.90;99.70;;;;;;5073344;28;20052;-71
2022/10/09 01:15:54;;;;;;;8.35;1.98;;;10.80;99.70;;;;;;5073759;28;20040;-72
2022/10/09 01:18:41;;;;;;;9.65;1.88;;;10.80;99.90;;;;;;5011537;28;20499;-72
2022/10/09 01:21:14;;;;;;;5.25;1.48;;;10.80;99.60;;;;;;5011718;28;20076;-71
2022/10/09 01:23:58;;;;;;;7.00;1.88;;;10.70;99.60;;;;;;5052257;28;20039;-72
2022/10/09 01:26:48;;;;;;;7.85;2.20;;;10.70;99.60;;;;;;5073286;28;20035;-71
2022/10/09 01:29:15;;;;;;;5.00;1.65;;;10.70;99.70;;;;;;5073856;28;20085;-71
2022/10/09 01:31:45;;;;;;;6.57;1.98;;;10.60;99.70;;;;;;5072238;28;20064;-71
2022/10/09 01:34:14;;;;;;;4.72;1.70;;;10.70;99.80;;;;;;5073436;28;20036;-71
2022/10/09 01:36:42;;;;;;;8.85;3.03;;;10.60;99.90;;;;;;5073011;28;20454;-71
2022/10/09 01:39:12;;;;;;;5.90;1.52;;;10.60;99.80;;;;;;5073417;28;20029;-72
2022/10/09 01:41:37;;;;;;;8.05;2.10;;;10.60;99.80;;;;;;5073233;28;20028;-72
2022/10/09 01:44:21;;;;;;;8.43;2.00;;;10.50;99.80;;;;;;5073822;28;20331;-72
2022/10/09 01:46:47;;;;;;;7.32;1.77;;;10.50;99.80;;;;;;5072178;28;20043;-72
2022/10/09 01:49:21;;;;;;;4.05;1.50;;;10.50;99.80;;;;;;5073161;28;20032;-71
2022/10/09 01:51:52;;;;;;;10.57;1.73;;;10.40;99.80;;;;;;5073049;28;20028;-72
2022/10/09 01:54:50;;;;;;;8.50;1.80;;;10.40;99.80;;;;;;5071964;28;20452;-72
2022/10/09 01:57:26;;;;;;;4.70;1.63;;;10.40;99.70;;;;;;5073057;28;20033;-72
2022/10/09 01:59:53;;;;;;;8.13;1.98;;;10.30;99.80;;;;;;5071709;28;20444;-72
2022/10/09 02:02:20;;;;;;;7.07;1.37;;;10.30;99.80;;;;;;5073181;28;20078;-71
2022/10/09 02:04:48;;;;;;;5.78;1.48;;;10.30;99.80;;;;;;5073185;28;20381;-72
2022/10/09 02:07:16;;;;;;;10.70;1.85;;;10.20;99.70;;;;;;5072773;28;20043;-72
2022/10/09 02:09:42;;;;;;;6.07;1.98;;;10.20;99.60;;;;;;5072628;28;20115;-72
2022/10/09 02:12:10;;;;;;;11.27;3.08;;;10.20;99.60;;;;;;5072460;28;20047;-71
2022/10/09 02:14:36;;;;;;;12.50;2.03;;;10.20;99.50;;;;;;5072429;28;20028;-70
2022/10/09 02:17:10;;;;;;;9.50;1.98;;;10.30;99.80;;;;;;5072947;28;20071;-73
2022/10/09 02:19:46;;;;;;;6.85;1.63;;;10.30;99.90;;;;;;5072603;28;20363;-72
2022/10/09 02:22:23;;;;;;;9.60;1.77;;;10.20;99.90;;;;;;5072356;28;20409;-72
2022/10/09 02:24:49;;;;;;;9.57;2.90;;;10.20;99.70;;;;;;5072499;28;20032;-71
2022/10/09 02:27:17;;;;;;;13.00;2.20;;;10.10;99.80;;;;;;5072471;28;20119;-72
2022/10/09 02:29:44;;;;;;;8.57;1.52;;;10.20;99.90;;;;;;5072346;28;20036;-72
2022/10/09 02:32:11;;;;;;;9.23;2.00;;;10.10;99.90;;;;;;5072576;28;20031;-72
2022/10/09 02:34:37;;;;;;;4.95;1.40;;;10.10;99.80;;;;;;5072114;28;20470;-74
2022/10/09 02:37:03;;;;;;;5.55;1.33;;;10.10;99.90;;;;;;5072048;28;20032;-72
2022/10/09 02:39:28;;;;;;;10.73;2.13;;;10.10;99.90;;;;;;5072039;28;20528;-72
2022/10/09 02:41:54;;;;;;;11.23;2.00;;;10.00;99.90;;;;;;5071954;28;20029;-71
2022/10/09 02:44:19;;;;;;;8.48;1.80;;;10.10;99.90;;;;;;5071149;28;20089;-74
2022/10/09 02:46:45;;;;;;;11.45;2.28;;;10.10;99.90;;;;;;5072621;28;20373;-72
2022/10/09 02:49:11;;;;;;;3.30;1.40;;;10.10;99.90;;;;;;5072020;28;20052;-72
2022/10/09 02:51:37;;;;;;;6.55;1.95;;;10.00;99.70;;;;;;5071773;28;20071;-72
2022/10/09 02:54:03;;;;;;;7.15;1.92;;;10.00;99.90;;;;;;5071741;28;20462;-72
2022/10/09 02:56:29;;;;;;;4.90;1.55;;;10.00;99.80;;;;;;5072041;28;20027;-72
2022/10/09 02:58:55;;;;;;;6.70;1.95;;;10.00;99.80;;;;;;5072168;28;20025;-72
2022/10/09 03:01:21;;;;;;;7.40;1.77;;;10.00;99.90;;;;;;5071681;28;20390;-72
2022/10/09 03:03:46;;;;;;;11.25;2.40;;;10.00;99.90;;;;;;5071637;28;20029;-72
2022/10/09 03:06:14;;;;;;;10.15;2.30;;;9.90;99.90;;;;;;5071592;28;20123;-72
2022/10/09 03:08:42;;;;;;;9.90;2.30;;;9.90;99.90;;;;;;5071371;28;20017;-71
2022/10/09 03:11:09;;;;;;;7.38;1.83;;;9.90;99.90;;;;;;5071663;28;20517;-71
2022/10/09 03:13:36;;;;;;;9.82;2.10;;;9.90;99.90;;;;;;5070289;28;20043;-73
2022/10/09 03:16:07;;;;;;;7.80;2.30;;;9.90;99.90;;;;;;5070542;28;20066;-72
2022/10/09 03:18:34;;;;;;;2.92;1.30;;;9.80;99.90;;;;;;5071333;28;20025;-72
2022/10/09 03:20:59;;;;;;;6.70;1.98;;;9.80;99.90;;;;;;5070128;28;20116;-73
2022/10/09 03:23:25;;;;;;;9.13;2.10;;;9.90;99.90;;;;;;5071153;28;20186;-72
2022/10/09 03:25:56;;;;;;;7.80;2.35;;;9.80;99.90;;;;;;5071614;28;20355;-72
2022/10/09 03:28:22;;;;;;;5.72;2.08;;;9.80;99.90;;;;;;5071135;28;20025;-72
2022/10/09 03:30:48;;;;;;;7.05;1.75;;;9.80;99.90;;;;;;5071188;28;20032;-71
2022/10/09 03:33:13;;;;;;;11.88;2.63;;;9.70;99.90;;;;;;5070870;28;20025;-73
2022/10/09 03:35:40;;;;;;;4.80;1.90;;;9.70;99.90;;;;;;5070930;28;20043;-73
2022/10/09 03:38:06;;;;;;;7.82;2.33;;;9.70;99.90;;;;;;5071410;28;20348;-72
2022/10/09 03:40:32;;;;;;;8.40;2.03;;;9.70;99.90;;;;;;5070855;28;20032;-73
2022/10/09 03:42:57;;;;;;;7.55;2.20;;;9.70;99.90;;;;;;5070827;28;20106;-71
2022/10/09 03:45:23;;;;;;;8.25;1.98;;;9.70;99.90;;;;;;5070834;28;20419;-71
2022/10/09 03:47:49;;;;;;;8.70;2.20;;;9.60;99.90;;;;;;5069762;28;20029;-72
2022/10/09 03:50:14;;;;;;;5.60;1.55;;;9.60;99.90;;;;;;5071360;28;20035;-72
2022/10/09 03:52:40;;;;;;;6.47;1.95;;;9.60;99.90;;;;;;5070823;28;20403;-72
2022/10/09 03:55:07;;;;;;;8.38;1.80;;;9.60;99.90;;;;;;5070947;28;20047;-72
2022/10/09 03:57:34;;;;;;;10.50;1.90;;;9.60;99.90;;;;;;5070942;28;20141;-72
2022/10/09 03:59:59;;;;;;;3.77;1.30;;;9.70;99.90;;;;;;5070924;28;20024;-73
2022/10/09 04:02:25;;;;;;;8.77;2.10;;;9.60;99.90;;;;;;5070625;28;20548;-72
2022/10/09 04:04:51;;;;;;;9.95;1.95;;;9.60;99.90;;;;;;5071207;28;20094;-71
2022/10/09 04:07:17;;;;;;;7.30;1.95;;;9.60;99.90;;;;;;5070922;28;20051;-73
2022/10/09 04:09:42;;;;;;;14.00;2.17;;;9.60;99.90;;;;;;5069690;28;20109;-72
2022/10/09 04:12:08;;;;;;;5.63;2.05;;;9.50;99.90;;;;;;5070484;28;20131;-73
2022/10/09 04:14:34;;;;;;;6.43;2.30;;;9.50;99.90;;;;;;5070503;28;20469;-71
2022/10/09 04:16:59;;;;;;;8.80;1.67;;;9.50;99.90;;;;;;5070907;28;20130;-70
2022/10/09 04:19:25;;;;;;;11.35;1.95;;;9.50;99.90;;;;;;5069115;28;20048;-72
2022/10/09 04:21:50;;;;;;;7.55;1.70;;;9.50;99.90;;;;;;5070599;28;20033;-72
2022/10/09 04:24:16;;;;;;;4.97;1.50;;;9.50;99.90;;;;;;5070497;28;20059;-73
2022/10/09 04:26:42;;;;;;;5.30;1.77;;;9.50;99.90;;;;;;5069234;28;20118;-72
2022/10/09 04:29:07;;;;;;;4.47;1.52;;;9.50;99.90;;;;;;5074816;28;20111;-73
2022/10/09 04:31:33;;;;;;;7.32;2.20;;;9.50;99.90;;;;;;5073244;28;20036;-72
2022/10/09 04:33:59;;;;;;;8.30;2.20;;;9.50;99.90;;;;;;5074383;28;20036;-73
2022/10/09 04:36:24;;;;;;;8.32;2.15;;;9.60;99.90;;;;;;5074292;28;20056;-73
2022/10/09 04:38:51;;;;;;;9.23;2.08;;;9.50;99.90;;;;;;5074597;28;20043;-72
2022/10/09 04:41:17;;;;;;;14.73;2.35;;;9.50;99.90;;;;;;5073698;28;20067;-72
2022/10/09 04:43:43;;;;;;;6.30;1.95;;;9.50;99.90;;;;;;5074443;28;20060;-72
2022/10/09 04:46:12;;;;;;;9.05;1.70;;;9.50;99.90;;;;;;5074181;28;20201;-72
2022/10/09 04:48:42;;;;;;;8.07;1.58;;;9.40;99.90;;;;;;5074069;28;20040;-73
2022/10/09 04:51:08;;;;;;;5.47;1.70;;;9.40;99.90;;;;;;5073805;28;20041;-72
2022/10/09 04:53:35;;;;;;;6.70;2.13;;;9.30;99.90;;;;;;5074331;28;20020;-72
2022/10/09 04:56:03;;;;;;;10.95;2.25;;;9.40;99.90;;;;;;5074464;28;20023;-72
2022/10/09 04:58:30;;;;;;;8.35;2.25;;;9.40;99.90;;;;;;5073966;28;20029;-71
2022/10/09 05:00:56;;;;;;;9.30;1.80;;;9.30;99.90;;;;;;5073032;28;20039;-72
2022/10/09 05:03:22;;;;;;;12.90;2.33;;;9.40;99.90;;;;;;5073803;28;20032;-72
2022/10/09 05:05:48;;;;;;;7.30;1.90;;;9.30;99.90;;;;;;5073752;28;20094;-72
2022/10/09 05:08:13;;;;;;;9.35;1.80;;;9.30;99.90;;;;;;5074073;28;20029;-71
2022/10/09 05:10:40;;;;;;;5.85;1.95;;;9.30;99.90;;;;;;5073540;28;20076;-72
2022/10/09 05:13:06;;;;;;;4.05;2.22;;;9.30;99.90;;;;;;5072458;28;20044;-72
2022/10/09 05:15:35;;;;;;;11.73;2.08;;;9.20;99.90;;;;;;5073681;28;20033;-72
2022/10/09 05:18:01;;;;;;;8.32;2.53;;;9.30;99.90;;;;;;5073673;28;20032;-72
2022/10/09 05:20:27;;;;;;;15.23;2.63;;;9.30;99.90;;;;;;5073447;28;20487;-72
2022/10/09 05:22:52;;;;;;;4.75;1.70;;;9.30;99.90;;;;;;5073908;28;20408;-73
2022/10/09 05:25:18;;;;;;;6.70;2.13;;;9.30;99.90;;;;;;5073550;28;20462;-72
2022/10/09 05:27:43;;;;;;;6.70;2.05;;;9.20;99.90;;;;;;5072350;28;20028;-72
2022/10/09 05:30:10;;;;;;;7.28;2.20;;;9.20;99.90;;;;;;5073453;28;20033;-72
2022/10/09 05:32:35;;;;;;;11.45;2.58;;;9.20;99.90;;;;;;5069060;28;20517;-72
2022/10/09 05:35:03;;;;;;;5.47;2.05;;;9.20;99.90;;;;;;5074729;28;20339;-71
2022/10/09 05:37:28;;;;;;;9.52;2.15;;;9.20;99.90;;;;;;5073431;28;20032;-72
2022/10/09 05:39:54;;;;;;;5.47;1.75;;;9.20;99.90;;;;;;5072796;28;20033;-71
2022/10/09 05:42:20;;;;;;;11.85;2.20;;;9.10;99.90;;;;;;5073569;28;20041;-72
2022/10/09 05:44:46;;;;;;;13.48;2.58;;;9.20;99.90;;;;;;5073410;28;20036;-73
2022/10/09 05:47:16;;;;;;;4.18;1.67;;;9.20;99.90;;;;;;5073612;28;20028;-71
2022/10/09 05:49:42;;;;;;;8.65;2.30;;;9.20;99.90;;;;;;5073558;28;20024;-72
2022/10/09 05:52:08;;;;;;;8.98;2.22;;;9.20;99.90;;;;;;5072130;28;20089;-74
2022/10/09 05:54:33;;;;;;;5.13;2.17;;;9.20;99.90;;;;;;5072383;28;20094;-72
2022/10/09 05:56:59;;;;;;;7.47;2.70;;;9.20;99.90;;;;;;5072658;28;20361;-73
2022/10/09 05:59:25;;;;;;;9.20;2.10;;;9.30;99.90;;;;;;5073368;28;20021;-74
2022/10/09 06:01:52;;;;;;;10.20;2.25;;;9.30;99.90;;;;;;5073360;28;20029;-74
2022/10/09 06:04:20;;;;;;;5.03;2.28;;;9.30;99.90;;;;;;5073004;28;20040;-74
2022/10/09 06:06:47;;;;;;;5.80;2.10;;;9.30;99.90;;;;;;5073228;28;20048;-73
2022/10/09 06:09:14;;;;;;;5.75;1.85;;;9.30;99.90;;;;;;5073105;28;20128;-72
2022/10/09 06:11:41;;;;;;;11.98;2.90;;;9.30;99.90;;;;;;5071707;28;20045;-73
2022/10/09 06:14:09;;;;;;;12.05;2.50;;;9.30;99.90;;;;;;5073425;28;20118;-74
2022/10/09 06:16:38;;;;;;;17.77;6.88;;;9.30;99.90;;;;;;5072704;28;20412;-73
2022/10/09 06:19:05;;;;;;;12.98;5.07;;;9.30;99.90;;;;;;5072978;28;20107;-73
2022/10/09 06:21:31;;;;;;;10.90;5.10;;;9.30;99.90;;;;;;5072900;28;20060;-71
2022/10/09 06:23:59;;;;;;;14.55;5.28;;;9.20;99.90;;;;;;5072748;28;20048;-72
2022/10/09 06:26:28;;;;;;;11.80;4.63;;;9.40;99.90;;;;;;5072621;28;20493;-71
2022/10/09 06:28:54;;;;;;;10.05;4.43;;;9.30;99.90;;;;;;5073009;28;20024;-71
2022/10/09 06:31:22;;;;;;;10.85;3.13;;;9.30;99.90;;;;;;5072349;28;20051;-71
2022/10/09 06:33:50;;;;;;;8.23;2.40;;;9.40;99.90;;;;;;5072572;28;20024;-71
2022/10/09 06:36:21;;;;;;;9.90;2.65;;;9.50;99.90;;;;;;5072379;28;20036;-75
2022/10/09 06:38:46;;;;;;;7.38;2.95;;;9.50;99.90;;;;;;5072820;28;20424;-72
2022/10/09 06:41:23;;;;;;;9.20;2.63;;;9.50;99.90;;;;;;5072976;28;20062;-73
2022/10/09 06:43:57;;;;;;;7.03;2.70;;;9.50;99.90;;;;;;5072349;28;20477;-70
2022/10/09 06:46:26;;;;;;;16.10;3.05;;;9.60;99.90;;;;;;5072112;28;20033;-71
2022/10/09 06:48:52;;;;;;;15.52;2.30;;;9.60;99.90;;;;;;5072237;28;20032;-71
2022/10/09 06:51:20;;;;;;;13.35;2.58;;;9.70;99.90;;;;;;5071080;28;20421;-71
2022/10/09 06:53:51;;;;;;;3.67;1.95;;;9.70;99.90;;;;;;5072205;28;20264;-71
2022/10/09 06:56:19;;;;;;;7.90;2.53;;;9.80;99.90;;;;;;5072543;28;20059;-70
2022/10/09 06:58:45;;;;;;;;;;;9.80;99.90;;;;;;5072842;28;20033;-73
2022/10/09 07:01:15;;;;;;;10.30;3.00;;;9.80;99.90;;;;;;5071696;28;20334;-73
2022/10/09 07:03:43;;;;;;;8.10;2.88;;;9.90;99.90;;;;;;5071014;28;20036;-71
2022/10/09 07:06:16;;;;;;;7.20;2.95;;;9.90;99.90;;;;;;5071996;28;20138;-72
2022/10/09 07:08:43;;;;;;;26.30;9.27;;;10.00;99.90;;;;;;5071697;28;20099;-71
2022/10/09 07:11:15;;;;;;;16.88;6.25;;;10.00;99.90;;;;;;5072350;28;20819;-72
2022/10/09 07:13:42;;;;;;;12.23;5.22;;;10.10;99.90;;;;;;5071955;28;20430;-70
2022/10/09 07:16:09;;;;;;;7.43;2.55;;;10.10;99.90;;;;;;5071744;28;20539;-71
2022/10/09 07:18:35;;;;;;;12.00;4.70;;;10.20;99.90;;;;;;5070723;28;20052;-72
2022/10/09 07:21:03;;;;;;;16.83;4.40;;;10.20;99.90;;;;;;5071729;28;20024;-72
2022/10/09 07:23:29;;;;;;;12.48;4.40;;;10.30;99.90;;;;;;5070743;28;20028;-72
2022/10/09 07:25:56;;;;;;;10.98;2.88;;;10.40;99.90;;;;;;5072475;28;20461;-71
2022/10/09 07:28:24;;;;;;;6.47;2.40;;;10.40;99.90;;;;;;5071672;28;20024;-73
2022/10/09 07:30:50;;;;;;;6.32;3.00;;;10.50;99.90;;;;;;5070350;28;20113;-72
2022/10/09 07:33:15;;;;;;;8.23;3.20;;;10.50;99.90;;;;;;5071672;28;20037;-71
2022/10/09 07:35:41;;;;;;;6.72;2.30;;;10.60;99.90;;;;;;5071649;28;20083;-75
2022/10/09 07:38:07;;;;;;;8.32;3.25;;;10.60;99.90;;;;;;5072179;28;20024;-73
2022/10/09 07:40:34;;;;;;;4.00;2.53;;;10.70;99.90;;;;;;5070354;28;20055;-71
2022/10/09 07:43:01;;;;;;;8.15;3.00;;;10.80;99.90;;;;;;5070391;28;20470;-72
2022/10/09 07:45:26;;;;;;;9.50;2.70;;;10.80;99.90;;;;;;5071022;28;20094;-71
2022/10/09 07:47:52;;;;;;;7.65;2.45;;;10.90;99.90;;;;;;5067917;28;20033;-71
2022/10/09 07:50:21;;;;;;;12.20;2.72;;;11.00;99.90;;;;;;5051511;28;20107;-71
2022/10/09 07:52:47;;;;;;;13.27;2.90;;;11.00;99.90;;;;;;5051502;28;20485;-70
2022/10/09 07:55:12;;;;;;;8.35;3.00;;;11.10;99.90;;;;;;5066679;28;20025;-71
2022/10/09 07:57:38;;;;;;;9.18;2.60;;;11.10;99.90;;;;;;5050788;28;20044;-72
2022/10/09 08:00:04;;;;;;;11.65;2.60;;;11.20;99.90;;;;;;5066112;28;20029;-71
2022/10/09 08:02:30;;;;;;;9.15;2.63;;;11.30;99.90;;;;;;5050434;28;20090;-74
2022/10/09 08:04:56;;;;;;;10.63;2.85;;;11.30;99.90;;;;;;5057572;28;20036;-72
2022/10/09 08:07:21;;;;;;;13.35;2.75;;;11.40;99.90;;;;;;5069884;28;20056;-72
2022/10/09 08:09:47;;;;;;;13.43;2.78;;;11.40;99.90;;;;;;5071125;28;20086;-73
2022/10/09 08:12:13;;;;;;;7.40;3.03;;;11.50;99.90;;;;;;5069318;28;20136;-74
2022/10/09 08:14:40;;;;;;;7.47;2.75;;;11.60;99.90;;;;;;5070841;28;20497;-73
2022/10/09 08:17:05;;;;;;;12.73;2.78;;;11.60;99.90;;;;;;5071430;28;20028;-74
2022/10/09 08:19:31;;;;;;;9.25;2.50;;;11.70;99.90;;;;;;5070515;28;20033;-72
2022/10/09 08:21:57;;;;;;;14.18;4.43;;;11.70;99.90;;;;;;5071091;28;20090;-71
2022/10/09 08:24:22;;;;;;;16.55;5.40;;;11.80;99.90;;;;;;5069604;28;20112;-71
2022/10/09 08:26:48;;;;;;;14.02;3.28;;;11.90;99.90;;;;;;5070799;28;20520;-71
2022/10/09 08:29:15;;;;;;;11.73;2.75;;;12.00;99.90;;;;;;5070263;28;20105;-74
2022/10/09 08:31:41;;;;;;;9.27;2.80;;;12.10;99.90;;;;;;5070683;28;20032;-73
2022/10/09 08:34:07;;;;;;;9.77;2.90;;;12.20;99.90;;;;;;5070492;28;20596;-72
2022/10/09 08:36:34;;;;;;;8.98;3.35;;;12.30;99.90;;;;;;5070791;28;20033;-73
2022/10/09 08:38:59;;;;;;;12.38;2.60;;;12.60;99.90;;;;;;5069828;28;20347;-73
2022/10/09 08:41:28;;;;;;;8.90;2.42;;;12.90;99.90;;;;;;5069667;28;20035;-73
2022/10/09 08:44:19;;;;;;;9.38;2.47;;;13.40;99.90;;;;;;5071045;28;20025;-71
2022/10/09 08:46:56;;;;;;;7.20;2.53;;;14.00;99.90;;;;;;5070899;28;20033;-69
2022/10/09 08:49:30;;;;;;;9.52;2.03;;;14.80;99.10;;;;;;5070443;28;20116;-70
2022/10/09 08:52:00;;;;;;;4.30;1.95;;;15.40;99.70;;;;;;5070554;28;20041;-71
2022/10/09 08:54:36;;;;;;;4.65;2.25;;;16.00;99.00;;;;;;5069791;28;20048;-71
2022/10/09 08:57:08;;;;;;;4.38;1.80;;;16.40;97.90;;;;;;5070858;28;20025;-71
2022/10/09 08:59:35;;;;;;;8.63;2.30;;;17.00;98.40;;;;;;5070470;28;20013;-73
2022/10/09 09:02:29;;;;;;;12.95;2.30;;;17.70;95.60;;;;;;5070867;28;20039;-73
2022/10/09 09:05:00;;;;;;;8.00;1.83;;;18.20;95.00;;;;;;5070500;28;20048;-72
2022/10/09 09:07:42;;;;;;;7.18;1.70;;;18.70;93.60;;;;;;5070663;28;20417;-71
2022/10/09 09:10:27;;;;;;;7.97;1.83;;;19.10;93.10;;;;;;5070402;28;20467;-72
2022/10/09 09:13:17;;;;;;;6.80;1.73;;;19.70;92.80;;;;;;5070281;28;20051;-72
2022/10/09 09:15:47;;;;;;;12.25;2.08;;;20.40;91.20;;;;;;5073069;28;20451;-72
2022/10/09 09:18:38;;;;;;;7.22;2.10;;;21.10;89.80;;;;;;5074094;28;20082;-73
2022/10/09 09:21:16;;;;;;;10.07;1.88;;;22.00;91.80;;;;;;5072722;28;20017;-73
2022/10/09 09:23:46;;;;;;;8.15;1.88;;;22.40;87.70;;;;;;5074037;28;20049;-72
2022/10/09 09:26:16;;;;;;;5.38;1.77;;;22.80;85.90;;;;;;5073641;28;20035;-72
2022/10/09 09:28:44;;;;;;;10.05;2.03;;;23.10;82.80;;;;;;5073107;28;20483;-73
2022/10/09 09:31:35;;;;;;;7.93;1.87;;;23.40;84.40;;;;;;5073592;28;20052;-73
2022/10/09 09:34:05;;;;;;;14.48;2.00;;;23.90;83.40;;;;;;5073443;28;20254;-72
2022/10/09 09:36:38;;;;;;;10.68;2.65;;;23.70;80.00;;;;;;5073754;28;20347;-73
2022/10/09 09:39:04;;;;;;;7.75;1.50;;;24.30;78.70;;;;;;5073651;28;20027;-72
2022/10/09 09:41:29;;;;;;;7.78;1.60;;;24.70;78.10;;;;;;5073524;28;20028;-72
2022/10/09 09:43:55;;;;;;;9.23;1.90;;;25.40;75.40;;;;;;5073897;28;20028;-72
2022/10/09 09:46:26;;;;;;;7.70;2.00;;;26.30;73.10;;;;;;5073627;28;20037;-71
2022/10/09 09:48:52;;;;;;;9.32;2.70;;;26.60;69.30;;;;;;5073182;28;20036;-72
2022/10/09 09:51:26;;;;;;;9.50;1.80;;;26.60;66.50;;;;;;5073395;28;20036;-74
2022/10/09 09:53:55;;;;;;;11.07;2.35;;;26.60;67.30;;;;;;5073582;28;20458;-72
2022/10/09 09:56:37;;;;;;;5.43;1.77;;;27.10;65.50;;;;;;5072051;28;20039;-74
2022/10/09 09:59:03;;;;;;;7.80;2.05;;;27.50;63.50;;;;;;5074223;28;20901;-73
2022/10/09 10:01:30;;;;;;;10.95;2.15;;;27.40;64.00;;;;;;5072663;28;20040;-73
2022/10/09 10:03:59;;;;;;;7.28;1.70;;;28.20;65.10;;;;;;5073269;28;20094;-73
2022/10/09 10:06:40;;;;;;;7.03;1.85;;;27.70;62.40;;;;;;5072106;28;20467;-72
2022/10/09 10:09:14;;;;;;;10.70;2.20;;;28.50;61.70;;;;;;5073192;28;20050;-73
2022/10/09 10:11:53;;;;;;;8.32;2.13;;;28.70;62.00;;;;;;5071779;28;20080;-74
2022/10/09 10:14:18;;;;;;;6.70;2.20;;;28.90;59.30;;;;;;5073296;28;20404;-71
2022/10/09 10:16:49;;;;;;;6.50;1.30;;;29.10;62.30;;;;;;5071837;28;20028;-72
2022/10/09 10:19:37;;;;;;;8.52;1.58;;;29.50;58.30;;;;;;5071532;28;20040;-73
2022/10/09 10:22:05;;;;;;;9.48;2.10;;;29.00;56.50;;;;;;5072716;28;20039;-73
2022/10/09 10:24:44;;;;;;;7.88;2.08;;;29.10;57.20;;;;;;5072789;28;20127;-73
2022/10/09 10:27:37;;;;;;;7.97;1.38;;;29.30;56.90;;;;;;5072525;28;20063;-72
2022/10/09 10:30:12;;;;;;;9.95;1.67;;;29.40;54.90;;;;;;5072576;28;20086;-72
2022/10/09 10:32:37;;;;;;;6.93;1.55;;;29.20;54.70;;;;;;5072481;28;20040;-72
2022/10/09 10:35:26;;;;;;;5.72;1.70;;;29.50;55.00;;;;;;5072677;28;20021;-73
2022/10/09 10:38:05;;;;;;;9.32;1.42;;;29.90;56.90;;;;;;5072278;28;20040;-73
2022/10/09 10:40:36;;;;;;;5.85;1.58;;;30.10;54.60;;;;;;5071765;28;20485;-74
2022/10/09 10:43:11;;;;;;;10.52;1.48;;;29.70;54.90;;;;;;5072120;28;20039;-72
2022/10/09 10:45:42;;;;;;;7.40;1.60;;;29.50;54.70;;;;;;5071826;28;20039;-73
2022/10/09 10:48:22;;;;;;;12.23;4.72;;;29.90;54.40;;;;;;5071709;28;20028;-72
2022/10/09 10:51:02;;;;;;;10.88;4.13;;;29.80;51.60;;;;;;5070574;28;20037;-72
2022/10/09 10:53:35;;;;;;;8.68;4.00;;;29.80;51.70;;;;;;5071893;28;20040;-72
2022/10/09 10:56:18;;;;;;;6.63;1.67;;;29.70;52.70;;;;;;5072483;28;20043;-73
2022/10/09 10:58:53;;;;;;;6.60;1.83;;;29.10;51.00;;;;;;5071591;28;20494;-75
2022/10/09 11:01:40;;;;;;;5.07;1.25;;;29.30;53.00;;;;;;5071672;28;20047;-74
2022/10/09 11:04:25;;;;;;;8.45;1.80;;;29.80;52.20;;;;;;5071575;28;20060;-74
2022/10/09 11:07:24;;;;;;;6.35;1.70;;;29.30;52.00;;;;;;5072333;28;20326;-74
2022/10/09 11:10:01;;;;;;;4.88;1.50;;;29.30;51.10;;;;;;5071222;28;20036;-74
2022/10/09 11:12:36;;;;;;;7.85;1.50;;;29.10;50.80;;;;;;5071158;28;20105;-75
2022/10/09 11:15:22;;;;;;;7.00;1.55;;;28.60;51.00;;;;;;5071266;28;20029;-74
2022/10/09 11:18:26;;;;;;;6.65;1.38;;;28.60;51.80;;;;;;5071013;28;20358;-76
2022/10/09 11:21:00;;;;;;;6.03;1.13;;;28.20;51.00;;;;;;5009304;28;20391;-73
2022/10/09 11:23:56;;;;;;;6.35;1.52;;;27.90;52.20;;;;;;5063359;28;20039;-74
2022/10/09 11:26:42;;;;;;;9.10;1.50;;;27.70;52.20;;;;;;5071099;28;20414;-75
2022/10/09 11:29:22;;;;;;;10.23;1.58;;;27.70;52.40;;;;;;5071787;28;20025;-74
2022/10/09 11:32:17;;;;;;;5.65;1.40;;;27.40;52.00;;;;;;5071622;28;20083;-77
2022/10/09 11:34:50;;;;;;;7.85;1.50;;;26.50;52.30;;;;;;5064564;28;20029;-76
2022/10/09 11:37:22;;;;;;;6.35;1.23;;;25.40;53.40;;;;;;5070694;28;20058;-76
2022/10/09 11:39:48;;;;;;;9.85;2.10;;;24.20;54.80;;;;;;5069820;28;20037;-78
2022/10/09 11:42:19;;;;;;;6.30;1.23;;;23.50;55.80;;;;;;5070048;28;20035;-76
2022/10/09 11:45:03;;;;;;;6.80;1.33;;;23.10;55.90;;;;;;5070911;28;20025;-75
2022/10/09 11:47:59;;;;;;;11.35;1.70;;;22.40;56.80;;;;;;5071085;28;20024;-75
2022/10/09 11:51:02;;;;;;;5.72;1.30;;;22.10;57.70;;;;;;5068066;28;20032;-73
2022/10/09 11:53:30;;;;;;;7.25;1.00;;;21.90;58.10;;;;;;5071121;28;20479;-73
2022/10/09 11:56:07;;;;;;;7.20;1.30;;;21.70;58.30;;;;;;5071395;28;20020;-72
2022/10/09 11:58:34;;;;;;;7.82;1.50;;;21.60;58.70;;;;;;5071583;28;20051;-73
2022/10/09 12:01:22;;;;;;;4.30;1.10;;;21.60;58.20;;;;;;5070125;28;20131;-74
2022/10/09 12:04:10;;;;;;;7.72;1.42;;;21.50;58.60;;;;;;5072420;28;20139;-72
2022/10/09 12:06:50;;;;;;;9.93;1.70;;;21.30;59.70;;;;;;5069776;28;20033;-72
2022/10/09 12:09:32;;;;;;;2.72;0.95;;;21.00;60.40;;;;;;5070565;28;20029;-75
2022/10/09 12:12:05;;;;;;;5.05;0.98;;;20.90;60.10;;;;;;5069347;28;20055;-78
2022/10/09 12:14:33;;;;;;;5.55;1.13;;;21.00;60.60;;;;;;5070987;28;20052;-75
2022/10/09 12:16:59;;;;;;;6.05;1.38;;;20.80;59.70;;;;;;5071337;28;20039;-75
2022/10/09 12:19:38;;;;;;;5.50;1.05;;;20.80;58.80;;;;;;5072580;28;20029;-76
2022/10/09 12:22:18;;;;;;;9.95;1.48;;;20.70;58.90;;;;;;5072149;28;20191;-76
2022/10/09 12:24:50;;;;;;;4.55;1.10;;;20.50;58.40;;;;;;5075202;28;20120;-75
2022/10/09 12:27:37;;;;;;;4.07;1.00;;;20.20;58.10;;;;;;5074433;28;20033;-78
2022/10/09 12:30:16;;;;;;;6.28;1.10;;;20.20;58.80;;;;;;5070593;28;20028;-72
2022/10/09 12:32:48;;;;;;;4.53;0.90;;;20.00;58.60;;;;;;5071149;28;20115;-74
2022/10/09 12:35:23;;;;;;;9.57;0.93;;;19.80;58.40;;;;;;5071084;28;20020;-72
2022/10/09 12:37:49;;;;;;;7.13;1.00;;;19.90;59.20;;;;;;5070515;28;20043;-72
2022/10/09 12:40:20;;;;;;;4.18;0.75;;;20.00;59.60;;;;;;5070487;28;20122;-73
2022/10/09 12:42:46;;;;;;;6.82;1.20;;;20.00;60.20;;;;;;5070312;28;20039;-76
2022/10/09 12:45:29;;;;;;;5.63;1.00;;;20.00;60.50;;;;;;5069222;28;20352;-76
2022/10/09 12:47:57;;;;;;;8.98;1.45;;;19.90;60.20;;;;;;5070868;28;20048;-73
2022/10/09 12:50:32;;;;;;;;;;;19.90;60.40;;;;;;5075689;28;20079;-76
2022/10/09 12:53:03;;;;;;;6.60;0.90;;;19.80;60.00;;;;;;5074814;28;19912;-72
2022/10/09 12:55:32;;;;;;;9.00;1.08;;;19.90;60.10;;;;;;5074080;28;20078;-74
2022/10/09 12:58:06;;;;;;;4.75;0.90;;;19.90;61.10;;;;;;5074645;28;20029;-73
2022/10/09 13:00:33;;;;;;;3.80;1.23;;;19.80;60.90;;;;;;5074138;28;20530;-73
2022/10/09 13:03:00;;;;;;;6.15;1.30;;;19.70;61.10;;;;;;5073895;28;20048;-72
2022/10/09 13:05:39;;;;;;;5.65;0.82;;;19.60;60.90;;;;;;5073987;28;20091;-72